createdAt,value
2024-01-20T00:00:23.527Z,18.20
2024-01-20T00:02:50.210Z,24.83
2024-01-20T00:05:17.314Z,21.88
2024-01-20T00:07:44.683Z,23.98
2024-01-20T00:10:13.294Z,25.03
2024-01-20T00:12:42.203Z,27.08
2024-01-20T00:15:10.045Z,24.33
2024-01-20T00:17:38.840Z,23.35
2024-01-20T00:20:06.254Z,22.45
2024-01-20T00:22:34.021Z,21.70
2024-01-20T00:25:02.084Z,21.35
2024-01-20T00:27:29.516Z,21.87
2024-01-20T00:29:56.130Z,20.23
2024-01-20T00:32:22.879Z,22.77
2024-01-20T00:34:59.741Z,24.15
2024-01-20T00:37:33.743Z,26.35
2024-01-20T00:40:00.218Z,22.83
2024-01-20T00:42:26.782Z,22.90
2024-01-20T00:44:53.239Z,22.23
2024-01-20T00:47:20.191Z,20.95
2024-01-20T00:49:48.515Z,19.23
2024-01-20T00:52:16.799Z,17.65
2024-01-20T00:54:43.505Z,17.37
2024-01-20T00:57:10.354Z,16.88
2024-01-20T00:59:36.872Z,17.05
2024-01-20T01:02:04.120Z,15.68
2024-01-20T01:04:30.665Z,15.68
2024-01-20T01:06:57.274Z,15.63
2024-01-20T01:09:24.392Z,17.05
2024-01-20T01:11:50.909Z,16.48
2024-01-20T01:14:17.488Z,16.48
2024-01-20T01:16:44.560Z,16.15
2024-01-20T01:19:11.114Z,16.42
2024-01-20T01:21:37.940Z,16.27
2024-01-20T01:24:04.835Z,16.58
2024-01-20T01:26:33.403Z,16.50
2024-01-20T01:29:00.501Z,16.00
2024-01-20T01:31:27.286Z,15.82
2024-01-20T01:33:53.914Z,15.77
2024-01-20T01:36:21.037Z,15.90
2024-01-20T01:38:47.996Z,16.02
2024-01-20T01:41:14.611Z,17.98
2024-01-20T01:43:41.311Z,17.90
2024-01-20T01:46:08.025Z,18.30
2024-01-20T01:48:35.097Z,17.67
2024-01-20T01:51:04.354Z,17.33
2024-01-20T01:56:00.930Z,13.88
2024-01-20T01:58:28.328Z,17.70
2024-01-20T02:00:55.223Z,16.77
2024-01-20T02:03:22.297Z,16.00
2024-01-20T02:05:49.054Z,16.58
2024-01-20T02:08:15.794Z,16.45
2024-01-20T02:10:43.822Z,14.60
2024-01-20T02:13:11.536Z,15.50
2024-01-20T02:15:38.287Z,15.98
2024-01-20T02:18:04.977Z,16.33
2024-01-20T02:20:31.518Z,15.68
2024-01-20T02:22:58.371Z,13.23
2024-01-20T02:25:25.028Z,13.88
2024-01-20T02:27:51.555Z,17.60
2024-01-20T02:30:18.067Z,13.77
2024-01-20T02:32:44.773Z,14.23
2024-01-20T02:35:11.841Z,14.32
2024-01-20T02:37:38.314Z,14.43
2024-01-20T02:40:05.537Z,14.60
2024-01-20T02:42:32.008Z,12.85
2024-01-20T02:44:58.629Z,13.07
2024-01-20T02:47:25.890Z,12.90
2024-01-20T02:49:52.580Z,13.43
2024-01-20T02:52:19.069Z,13.95
2024-01-20T02:54:45.499Z,14.73
2024-01-20T02:57:12.021Z,15.05
2024-01-20T02:59:38.656Z,15.18
2024-01-20T03:02:05.168Z,15.65
2024-01-20T03:04:31.742Z,16.33
2024-01-20T03:06:58.314Z,17.23
2024-01-20T03:09:24.870Z,16.55
2024-01-20T03:11:51.423Z,16.48
2024-01-20T03:14:18.165Z,17.10
2024-01-20T03:16:44.797Z,16.05
2024-01-20T03:19:11.494Z,16.35
2024-01-20T03:21:37.971Z,16.70
2024-01-20T03:24:04.734Z,16.00
2024-01-20T03:26:31.304Z,14.82
2024-01-20T03:28:57.764Z,12.80
2024-01-20T03:31:26.486Z,12.18
2024-01-20T03:33:53.043Z,12.95
2024-01-20T03:36:19.682Z,12.57
2024-01-20T03:38:46.453Z,12.45
2024-01-20T03:41:12.908Z,13.98
2024-01-20T03:43:39.459Z,13.15
2024-01-20T03:46:06.300Z,13.55
2024-01-20T03:48:33.676Z,15.02
2024-01-20T03:51:00.311Z,15.25
2024-01-20T03:53:26.895Z,16.05
2024-01-20T03:55:53.737Z,16.92
2024-01-20T03:58:20.369Z,17.05
2024-01-20T04:00:47.047Z,17.83
2024-01-20T04:03:13.709Z,15.30
2024-01-20T04:05:41.723Z,14.93
2024-01-20T04:08:08.225Z,15.18
2024-01-20T04:10:34.876Z,15.60
2024-01-20T04:13:01.406Z,15.23
2024-01-20T04:15:28.306Z,14.65
2024-01-20T04:17:55.153Z,14.55
2024-01-20T04:20:21.777Z,15.75
2024-01-20T04:22:48.347Z,17.25
2024-01-20T04:25:14.862Z,17.00
2024-01-20T04:27:41.895Z,16.80
2024-01-20T04:30:10.222Z,17.55
2024-01-20T04:32:37.354Z,17.45
2024-01-20T04:35:07.352Z,16.50
2024-01-20T04:37:34.198Z,17.90
2024-01-20T04:40:02.457Z,17.80
2024-01-20T04:42:29.013Z,19.25
2024-01-20T04:44:55.878Z,20.08
2024-01-20T04:47:22.599Z,21.85
2024-01-20T04:49:54.645Z,22.55
2024-01-20T04:52:22.246Z,22.13
2024-01-20T04:54:48.718Z,23.08
2024-01-20T04:57:15.332Z,23.52
2024-01-20T04:59:42.007Z,21.15
2024-01-20T05:02:08.504Z,21.25
2024-01-20T05:04:35.101Z,19.75
2024-01-20T05:07:01.717Z,18.98
2024-01-20T05:09:28.356Z,17.52
2024-01-20T05:11:54.982Z,17.65
2024-01-20T05:14:21.966Z,17.15
2024-01-20T05:16:48.512Z,19.10
2024-01-20T05:19:15.423Z,19.58
2024-01-20T05:21:42.095Z,18.48
2024-01-20T05:24:08.694Z,18.73
2024-01-20T05:26:35.309Z,18.80
2024-01-20T05:29:01.844Z,18.10
2024-01-20T05:31:32.824Z,18.40
2024-01-20T05:34:00.508Z,16.70
2024-01-20T05:36:27.631Z,16.48
2024-01-20T05:38:54.396Z,15.98
2024-01-20T05:41:21.101Z,16.40
2024-01-20T05:43:48.057Z,15.45
2024-01-20T05:46:14.550Z,15.35
2024-01-20T05:48:41.222Z,16.83
2024-01-20T05:51:08.205Z,16.45
2024-01-20T05:53:35.224Z,15.18
2024-01-20T05:56:01.748Z,16.10
2024-01-20T05:58:28.269Z,15.13
2024-01-20T06:00:55.497Z,17.17
2024-01-20T06:03:22.631Z,17.48
2024-01-20T06:05:50.968Z,16.67
2024-01-20T06:08:17.445Z,18.80
2024-01-20T06:10:45.049Z,18.67
2024-01-20T06:13:11.554Z,19.98
2024-01-20T06:15:38.391Z,21.08
2024-01-20T06:18:05.378Z,21.77
2024-01-20T06:20:31.963Z,20.50
2024-01-20T06:22:58.420Z,20.67
2024-01-20T06:25:24.978Z,19.55
2024-01-20T06:27:51.495Z,21.08
2024-01-20T06:30:18.291Z,22.33
2024-01-20T06:32:45.031Z,23.77
2024-01-20T06:35:11.992Z,23.73
2024-01-20T06:37:38.464Z,23.85
2024-01-20T06:40:05.423Z,23.02
2024-01-20T06:42:32.046Z,23.45
2024-01-20T06:45:00.929Z,22.02
2024-01-20T06:47:27.913Z,22.60
2024-01-20T06:49:54.835Z,20.92
2024-01-20T06:52:21.781Z,21.10
2024-01-20T06:54:49.620Z,25.58
2024-01-20T06:57:16.192Z,26.48
2024-01-20T06:59:43.266Z,23.60
2024-01-20T07:02:10.023Z,23.90
2024-01-20T07:04:36.589Z,32.22
2024-01-20T07:07:03.954Z,23.10
2024-01-20T07:09:30.602Z,23.25
2024-01-20T07:11:58.995Z,23.52
2024-01-20T07:14:26.828Z,25.92
2024-01-20T07:16:54.065Z,24.92
2024-01-20T07:19:20.746Z,25.55
2024-01-20T07:21:47.590Z,23.13
2024-01-20T07:24:14.144Z,28.42
2024-01-20T07:26:41.542Z,23.95
2024-01-20T07:29:08.648Z,24.80
2024-01-20T07:31:35.162Z,25.45
2024-01-20T07:34:02.158Z,25.52
2024-01-20T07:36:28.741Z,25.65
2024-01-20T07:38:55.388Z,27.70
2024-01-20T07:41:22.028Z,28.02
2024-01-20T07:43:48.515Z,26.25
2024-01-20T07:46:15.063Z,29.45
2024-01-20T07:48:41.951Z,28.40
2024-01-20T07:51:09.699Z,30.60
2024-01-20T07:53:36.326Z,30.48
2024-01-20T07:56:02.804Z,31.80
2024-01-20T07:58:29.438Z,29.88
2024-01-20T08:00:55.966Z,27.98
2024-01-20T08:03:22.443Z,27.05
2024-01-20T08:05:49.023Z,25.58
2024-01-20T08:08:15.507Z,23.45
2024-01-20T08:10:42.026Z,22.02
2024-01-20T08:13:08.471Z,20.27
2024-01-20T08:15:34.995Z,20.70
2024-01-20T08:18:01.773Z,21.67
2024-01-20T08:20:28.581Z,26.40
2024-01-20T08:22:55.148Z,23.77
2024-01-20T08:25:22.398Z,22.23
2024-01-20T08:27:49.250Z,21.08
2024-01-20T08:30:15.789Z,21.40
2024-01-20T08:32:44.857Z,25.92
2024-01-20T08:35:12.513Z,25.35
2024-01-20T08:37:39.027Z,24.58
2024-01-20T08:40:06.093Z,24.60
2024-01-20T08:42:33.637Z,25.23
2024-01-20T08:45:00.775Z,28.05
2024-01-20T08:47:28.385Z,26.42
2024-01-20T08:49:54.957Z,26.83
2024-01-20T08:52:21.503Z,25.52
2024-01-20T08:54:48.348Z,25.15
2024-01-20T08:57:15.050Z,28.30
2024-01-20T08:59:41.560Z,28.80
2024-01-20T09:02:08.353Z,30.70
2024-01-20T09:04:35.682Z,28.67
2024-01-20T09:07:02.680Z,28.77
2024-01-20T09:09:29.337Z,28.30
2024-01-20T09:11:55.925Z,29.50
2024-01-20T09:14:22.429Z,27.92
2024-01-20T09:16:49.661Z,28.48
2024-01-20T09:19:16.898Z,27.63
2024-01-20T09:21:46.507Z,29.45
2024-01-20T09:24:13.079Z,26.33
2024-01-20T09:26:41.073Z,27.17
2024-01-20T09:29:09.371Z,43.97
2024-01-20T09:31:36.119Z,28.88
2024-01-20T09:34:02.690Z,26.50
2024-01-20T09:36:29.422Z,26.70
2024-01-20T09:38:57.204Z,26.23
2024-01-20T09:41:24.846Z,25.77
2024-01-20T09:43:51.548Z,25.60
2024-01-20T09:46:18.584Z,25.98
2024-01-20T09:48:46.078Z,29.58
2024-01-20T09:51:13.005Z,27.27
2024-01-20T09:53:39.813Z,27.15
2024-01-20T09:56:06.993Z,30.25
2024-01-20T09:58:36.228Z,26.00
2024-01-20T10:01:04.046Z,27.77
2024-01-20T10:03:33.918Z,27.17
2024-01-20T10:06:00.745Z,26.65
2024-01-20T10:08:27.508Z,27.30
2024-01-20T10:11:04.726Z,28.00
2024-01-20T10:13:31.923Z,30.38
2024-01-20T10:15:58.844Z,28.70
2024-01-20T10:18:25.557Z,32.00
2024-01-20T10:21:05.630Z,28.95
2024-01-20T10:23:37.036Z,34.13
2024-01-20T10:26:05.382Z,31.75
2024-01-20T10:28:32.176Z,33.47
2024-01-20T10:30:58.782Z,35.53
2024-01-20T10:33:25.555Z,30.50
2024-01-20T10:35:53.158Z,39.50
2024-01-20T10:38:21.956Z,32.95
2024-01-20T10:40:53.988Z,27.88
2024-01-20T10:43:21.281Z,25.50
2024-01-20T10:46:00.992Z,26.20
2024-01-20T10:48:29.994Z,29.27
2024-01-20T10:53:27.311Z,26.13
2024-01-20T10:55:54.382Z,30.23
2024-01-20T10:58:24.434Z,28.48
2024-01-20T11:00:51.702Z,26.25
2024-01-20T11:03:18.664Z,29.50
2024-01-20T11:05:48.552Z,31.58
2024-01-20T11:08:24.977Z,28.73
2024-01-20T11:10:53.254Z,29.80
2024-01-20T11:13:19.777Z,28.87
2024-01-20T11:15:51.431Z,31.40
2024-01-20T11:18:19.174Z,29.90
2024-01-20T11:21:05.022Z,31.92
2024-01-20T11:23:31.590Z,32.92
2024-01-20T11:25:59.201Z,34.50
2024-01-20T11:28:35.770Z,33.58
2024-01-20T11:31:02.270Z,32.92
2024-01-20T11:33:31.724Z,40.10
2024-01-20T11:35:58.432Z,36.15
2024-01-20T11:38:25.421Z,34.15
2024-01-20T11:41:01.624Z,33.58
2024-01-20T11:43:28.648Z,32.33
2024-01-20T11:45:56.262Z,32.95
2024-01-20T11:48:23.211Z,32.03
2024-01-20T11:50:50.691Z,32.67
2024-01-20T11:53:17.342Z,34.92
2024-01-20T11:55:59.434Z,33.42
2024-01-20T11:58:29.326Z,33.95
2024-01-20T12:00:56.589Z,33.78
2024-01-20T12:03:23.729Z,34.08
2024-01-20T12:05:51.341Z,36.50
2024-01-20T12:08:18.601Z,35.63
2024-01-20T12:10:49.119Z,35.97
2024-01-20T12:13:17.636Z,36.45
2024-01-20T12:15:44.844Z,33.13
2024-01-20T12:18:11.830Z,33.58
2024-01-20T12:20:38.612Z,34.30
2024-01-20T12:23:05.183Z,34.05
2024-01-20T12:25:34.142Z,34.80
2024-01-20T12:28:01.009Z,36.70
2024-01-20T12:30:30.608Z,35.78
2024-01-20T12:32:58.034Z,34.08
2024-01-20T12:35:24.838Z,34.35
2024-01-20T12:37:51.450Z,32.17
2024-01-20T12:40:19.706Z,34.33
2024-01-20T12:42:46.364Z,33.97
2024-01-20T12:45:13.204Z,34.40
2024-01-20T12:47:40.027Z,36.13
2024-01-20T12:50:07.587Z,41.58
2024-01-20T12:52:34.297Z,38.13
2024-01-20T12:55:00.980Z,36.45
2024-01-20T12:57:27.562Z,34.00
2024-01-20T12:59:54.727Z,34.65
2024-01-20T13:02:21.456Z,35.05
2024-01-20T13:04:48.096Z,34.95
2024-01-20T13:07:15.355Z,34.70
2024-01-20T13:09:42.710Z,33.47
2024-01-20T13:12:09.570Z,35.22
2024-01-20T13:14:36.434Z,34.38
2024-01-20T13:17:03.792Z,38.40
2024-01-20T13:19:30.848Z,34.17
2024-01-20T13:21:57.983Z,36.65
2024-01-20T13:24:24.637Z,34.45
2024-01-20T13:26:51.346Z,38.85
2024-01-20T13:29:17.993Z,37.60
2024-01-20T13:31:44.514Z,43.30
2024-01-20T13:34:11.372Z,37.83
2024-01-20T13:36:38.698Z,35.55
2024-01-20T13:39:06.149Z,37.10
2024-01-20T13:41:34.664Z,35.80
2024-01-20T13:44:01.305Z,49.80
2024-01-20T13:46:27.810Z,43.15
2024-01-20T13:48:54.554Z,36.17
2024-01-20T13:51:22.845Z,35.00
2024-01-20T13:53:49.885Z,37.22
2024-01-20T13:56:16.415Z,41.65
2024-01-20T13:58:42.950Z,38.38
2024-01-20T14:01:09.714Z,36.63
2024-01-20T14:03:36.492Z,34.47
2024-01-20T14:06:04.041Z,36.00
2024-01-20T14:08:30.777Z,36.78
2024-01-20T14:10:57.401Z,36.13
2024-01-20T14:13:24.036Z,35.00
2024-01-20T14:15:52.788Z,35.20
2024-01-20T14:18:19.995Z,35.28
2024-01-20T14:20:46.567Z,33.80
2024-01-20T14:23:13.415Z,34.92
2024-01-20T14:25:39.995Z,34.20
2024-01-20T14:28:06.560Z,35.45
2024-01-20T14:30:33.638Z,43.85
2024-01-20T14:33:00.251Z,33.72
2024-01-20T14:35:27.097Z,31.92
2024-01-20T14:37:54.122Z,33.20
2024-01-20T14:40:20.577Z,33.00
2024-01-20T14:42:47.237Z,33.58
2024-01-20T14:45:14.848Z,33.00
2024-01-20T14:47:41.453Z,35.10
2024-01-20T14:50:08.700Z,33.65
2024-01-20T14:52:35.294Z,32.45
2024-01-20T14:55:01.860Z,34.17
2024-01-20T14:57:28.549Z,32.80
2024-01-20T14:59:55.068Z,35.47
2024-01-20T15:02:21.907Z,35.15
2024-01-20T15:04:48.397Z,35.22
2024-01-20T15:07:14.947Z,31.80
2024-01-20T15:09:42.450Z,33.85
2024-01-20T15:12:09.558Z,34.90
2024-01-20T15:14:36.212Z,35.80
2024-01-20T15:17:02.673Z,36.85
2024-01-20T15:19:29.326Z,33.13
2024-01-20T15:21:56.037Z,37.03
2024-01-20T15:24:22.609Z,38.40
2024-01-20T15:26:49.118Z,38.08
2024-01-20T15:29:15.944Z,37.30
2024-01-20T15:31:42.770Z,36.55
2024-01-20T15:34:09.430Z,37.88
2024-01-20T15:36:36.128Z,35.90
2024-01-20T15:39:03.117Z,36.88
2024-01-20T15:41:29.798Z,36.03
2024-01-20T15:43:56.418Z,41.13
2024-01-20T15:46:23.362Z,39.28
2024-01-20T15:48:49.911Z,36.42
2024-01-20T15:51:17.073Z,33.60
2024-01-20T15:53:45.840Z,34.17
2024-01-20T15:56:14.718Z,32.50
2024-01-20T15:58:41.667Z,33.92
2024-01-20T16:01:08.422Z,34.03
2024-01-20T16:03:35.142Z,33.35
2024-01-20T16:06:03.215Z,33.92
2024-01-20T16:08:29.788Z,32.33
2024-01-20T16:10:56.245Z,35.03
2024-01-20T16:13:22.743Z,44.38
2024-01-20T16:15:49.418Z,39.00
2024-01-20T16:18:16.376Z,34.53
2024-01-20T16:20:43.053Z,29.98
2024-01-20T16:23:10.397Z,27.77
2024-01-20T16:25:36.953Z,29.35
2024-01-20T16:28:03.620Z,30.15
2024-01-20T16:30:32.118Z,31.77
2024-01-20T16:32:58.878Z,30.42
2024-01-20T16:35:25.380Z,30.17
2024-01-20T16:37:51.979Z,31.77
2024-01-20T16:40:18.496Z,32.50
2024-01-20T16:42:45.554Z,32.65
2024-01-20T16:45:12.211Z,29.83
2024-01-20T16:47:38.944Z,31.00
2024-01-20T16:50:05.894Z,34.55
2024-01-20T16:52:32.396Z,36.35
2024-01-20T16:55:13.822Z,31.90
2024-01-20T16:57:42.387Z,28.65
2024-01-20T17:00:09.755Z,31.65
2024-01-20T17:02:36.508Z,35.60
2024-01-20T17:05:03.143Z,31.67
2024-01-20T17:07:29.683Z,30.73
2024-01-20T17:09:56.263Z,31.15
2024-01-20T17:12:24.738Z,30.75
2024-01-20T17:14:51.434Z,30.40
2024-01-20T17:17:17.926Z,27.63
2024-01-20T17:19:44.824Z,28.95
2024-01-20T17:22:11.428Z,29.33
2024-01-20T17:24:38.638Z,28.92
2024-01-20T17:27:05.608Z,30.15
2024-01-20T17:29:33.109Z,34.25
2024-01-20T17:32:02.606Z,32.15
2024-01-20T17:34:29.369Z,35.03
2024-01-20T17:36:56.632Z,36.40
2024-01-20T17:39:25.600Z,39.05
2024-01-20T17:44:21.062Z,39.88
2024-01-20T17:46:47.797Z,37.40
2024-01-20T17:49:14.369Z,38.00
2024-01-20T17:51:41.983Z,36.25
2024-01-20T17:54:08.624Z,38.58
2024-01-20T17:56:35.179Z,38.92
2024-01-20T17:59:01.856Z,37.67
2024-01-20T18:01:29.267Z,39.50
2024-01-20T18:03:56.019Z,40.28
2024-01-20T18:06:22.883Z,38.72
2024-01-20T18:08:49.674Z,38.90
2024-01-20T18:11:17.010Z,37.17
2024-01-20T18:13:43.867Z,36.63
2024-01-20T18:16:10.774Z,36.00
2024-01-20T18:18:37.527Z,32.33
2024-01-20T18:21:04.107Z,33.05
2024-01-20T18:23:30.768Z,34.03
2024-01-20T18:25:57.247Z,32.35
2024-01-20T18:28:24.801Z,35.35
2024-01-20T18:30:52.711Z,34.15
2024-01-20T18:33:19.926Z,35.83
2024-01-20T18:35:46.676Z,35.30
2024-01-20T18:38:13.321Z,30.20
2024-01-20T18:40:40.401Z,31.13
2024-01-20T18:43:06.916Z,28.58
2024-01-20T18:45:33.610Z,27.70
2024-01-20T18:48:00.332Z,28.83
2024-01-20T18:50:27.268Z,31.70
2024-01-20T18:52:54.873Z,36.28
2024-01-20T18:55:21.491Z,31.67
2024-01-20T18:57:47.986Z,35.25
2024-01-20T19:00:14.709Z,35.30
2024-01-20T19:02:41.384Z,36.83
2024-01-20T19:05:08.041Z,37.78
2024-01-20T19:07:34.609Z,35.92
2024-01-20T19:10:02.472Z,36.08
2024-01-20T19:12:29.016Z,36.45
2024-01-20T19:14:58.506Z,35.10
2024-01-20T19:17:28.334Z,34.83
2024-01-20T19:19:54.939Z,35.75
2024-01-20T19:22:24.187Z,36.55
2024-01-20T19:27:17.414Z,34.22
2024-01-20T19:29:44.229Z,35.08
2024-01-20T19:32:10.787Z,36.85
2024-01-20T19:34:37.421Z,37.70
2024-01-20T19:37:04.608Z,36.40
2024-01-20T19:39:32.546Z,37.83
2024-01-20T19:41:59.027Z,35.22
2024-01-20T19:44:25.626Z,34.58
2024-01-20T19:46:52.142Z,33.25
2024-01-20T19:49:24.975Z,32.33
2024-01-20T19:51:51.659Z,32.35
2024-01-20T19:54:18.186Z,32.60
2024-01-20T19:56:45.280Z,34.47
2024-01-20T19:59:14.229Z,34.70
2024-01-20T20:01:45.271Z,35.08
2024-01-20T20:04:16.597Z,38.25
2024-01-20T20:06:47.791Z,34.95
2024-01-20T20:09:16.054Z,32.95
2024-01-20T20:11:43.689Z,32.63
2024-01-20T20:14:11.128Z,34.50
2024-01-20T20:16:37.671Z,31.60
2024-01-20T20:19:04.713Z,32.47
2024-01-20T20:21:34.220Z,31.83
2024-01-20T20:24:01.372Z,32.95
2024-01-20T20:26:28.694Z,31.40
2024-01-20T20:28:55.359Z,32.15
2024-01-20T20:31:23.358Z,32.03
2024-01-20T20:33:50.490Z,31.50
2024-01-20T20:36:20.080Z,31.60
2024-01-20T20:38:47.137Z,31.58
2024-01-20T20:41:13.670Z,31.15
2024-01-20T20:43:40.124Z,29.95
2024-01-20T20:46:06.833Z,29.67
2024-01-20T20:48:33.481Z,30.70
2024-01-20T20:50:59.999Z,33.20
2024-01-20T20:53:26.689Z,33.40
2024-01-20T20:55:53.200Z,31.33
2024-01-20T20:58:19.740Z,30.55
2024-01-20T21:00:46.362Z,30.90
2024-01-20T21:03:13.516Z,31.00
2024-01-20T21:05:40.215Z,28.52
2024-01-20T21:08:07.184Z,28.05
2024-01-20T21:10:33.643Z,29.05
2024-01-20T21:13:00.600Z,29.27
2024-01-20T21:15:27.236Z,29.67
2024-01-20T21:17:53.863Z,28.58
2024-01-20T21:20:20.624Z,28.38
2024-01-20T21:22:47.167Z,29.05
2024-01-20T21:25:13.661Z,28.17
2024-01-20T21:27:40.240Z,27.40
2024-01-20T21:30:08.324Z,29.27
2024-01-20T21:32:34.907Z,28.13
2024-01-20T21:35:01.596Z,28.73
2024-01-20T21:37:28.397Z,31.27
2024-01-20T21:39:54.961Z,34.78
2024-01-20T21:42:21.859Z,36.65
2024-01-20T21:44:48.658Z,29.75
2024-01-20T21:47:15.207Z,33.05
2024-01-20T21:49:41.809Z,34.38
2024-01-20T21:52:09.245Z,33.53
2024-01-20T21:54:35.910Z,34.63
2024-01-20T21:57:02.505Z,36.78
2024-01-20T21:59:28.962Z,34.65
2024-01-20T22:01:55.726Z,35.60
2024-01-20T22:04:22.449Z,37.45
2024-01-20T22:06:51.010Z,35.10
2024-01-20T22:09:17.689Z,34.30
2024-01-20T22:11:44.409Z,34.45
2024-01-20T22:14:10.923Z,33.35
2024-01-20T22:16:37.500Z,35.08
2024-01-20T22:19:04.074Z,33.95
2024-01-20T22:21:30.941Z,32.53
2024-01-20T22:23:57.478Z,30.73
2024-01-20T22:26:24.003Z,30.42
2024-01-20T22:28:50.646Z,30.23
2024-01-20T22:31:17.160Z,29.67
2024-01-20T22:33:43.860Z,31.45
2024-01-20T22:36:10.537Z,32.97
2024-01-20T22:38:37.371Z,31.85
2024-01-20T22:41:05.628Z,31.92
2024-01-20T22:43:32.563Z,32.08
2024-01-20T22:45:59.242Z,32.13
2024-01-20T22:48:26.254Z,33.58
2024-01-20T22:50:55.475Z,32.80
2024-01-20T22:53:21.997Z,33.00
2024-01-20T22:55:48.450Z,33.00
2024-01-20T22:58:14.911Z,32.15
2024-01-20T23:00:41.852Z,32.45
2024-01-20T23:03:08.697Z,32.63
2024-01-20T23:05:35.313Z,31.30
2024-01-20T23:08:01.927Z,30.30
2024-01-20T23:10:28.410Z,29.08
2024-01-20T23:12:54.981Z,29.63
2024-01-20T23:15:21.530Z,30.55
2024-01-20T23:17:48.096Z,29.08
2024-01-20T23:20:15.719Z,31.58
2024-01-20T23:22:42.458Z,30.05
2024-01-20T23:25:10.246Z,30.05
2024-01-20T23:27:37.230Z,29.77
2024-01-20T23:30:04.352Z,27.45
2024-01-20T23:32:30.985Z,26.48
2024-01-20T23:34:57.776Z,28.55
2024-01-20T23:37:24.265Z,29.10
2024-01-20T23:39:50.808Z,26.48
2024-01-20T23:42:17.454Z,28.63
2024-01-20T23:44:43.966Z,28.13
2024-01-20T23:47:10.829Z,29.55
2024-01-20T23:49:37.456Z,29.65
2024-01-20T23:52:04.961Z,28.05
2024-01-20T23:54:31.692Z,26.80
2024-01-20T23:56:58.184Z,25.60
2024-01-20T23:59:24.759Z,26.50
